EDLPEDVK

Guest
Details From EDLP - Paderborn Lippstadt
To EDVK - Kassel Calden
Flight Number -
Tags generated
Created
Modified
Stats Distance 31 nm / 58 km
Max Altitude 2,400 ft / 732 m
Waypoints 3
Social Downloads 0
Likes 0
Share VATSIM

Download

Looking for another format? Having issues loading an existing format? Contact us
Advertisement - Login to hide

Notes

Basic altitude profile: - Ascent Rate: 2500ft/min - Ascent Speed: 250kts - Cruise Altitude: 35000ft - Cruise Speed: 420kts - Descent Rate: 1500ft/min - Descent Speed: 250kts Options: - Use NATs: yes - Use PACOTS: yes - Use low airways: yes - Use high airways: yes

Route

EDLP WRB EDVK

ID Type Via Altitude Latitude Longitude Leg Dist Tot Dist Heading (true) Name
O EDLP APT - 0 ft / 0 m 51.61417˚ 8.61634˚ - 0 nm - Paderborn Lippstadt
WRB VOR - 2,400 ft / 732 m 51.50570˚ 9.11091˚ 19 nm 19 nm 109° / 110° WARBURG VOR-DME
O EDVK APT - 0 ft / 0 m 51.41213˚ 9.38110˚ 11 nm 31 nm 119° / 119° Kassel Calden

Altitude Profile

Advertisement - Login to hide

EDLP

Details ICAO EDLP (PAD)
Name Paderborn Lippstadt
Region Germany - Civil
Timezone Europe/Berlin (UTC+2.0)
Stats Elevation 699 ft / 213 m (AMSL)
Location 51.614166° 8.616336°
Runways 1
Magnetic Variation 2.416° E

METAR

EDLP 221620Z 12005KT 9999 -RA FEW045 17/14 Q1014

Decode

TAF

TAF EDLP 221100Z 2212/2312 11006KT CAVOK PROB30 TEMPO 2212/2219 06015G25KT 4000 TSRA BKN040CB BECMG 2218/2221 VRB03KT

Decode

Departure Runways

ID Width Length Bearing (true) Bearing (mag) Surface Threshold Offset Overrun Length
06 148 ft / 45 m 7,136 ft / 2,175 m 57.28° 54.86° Asphalt 0 ft / 0 m 1,066 ft / 325 m
24 148 ft / 45 m 7,136 ft / 2,175 m 237.30° 234.88° Asphalt 0 ft / 0 m 397 ft / 121 m

EDVK

Details ICAO EDVK (KSF)
Name Kassel Calden
Region Germany - Civil
Timezone Europe/Berlin (UTC+2.0)
Stats Elevation 908 ft / 277 m (AMSL)
Location 51.412127° 9.381101°
Runways 3
Magnetic Variation 2.640° E

METAR

EDVK 221620Z 26009KT 9999 FEW010 SCT055 15/15 Q1014

Decode

TAF

Not found

Destination Runways

ID Width Length Bearing (true) Bearing (mag) Surface Threshold Offset Overrun Length
04 98 ft / 30 m 5,511 ft / 1,680 m 40.97° 38.33° Asphalt 184 ft / 56 m 0 ft / 0 m
04L 98 ft / 30 m 2,372 ft / 723 m 40.92° 38.28° Grass 0 ft / 0 m 0 ft / 0 m
22 98 ft / 30 m 5,511 ft / 1,680 m 220.98° 218.34° Asphalt 515 ft / 157 m 0 ft / 0 m
22R 98 ft / 30 m 2,372 ft / 723 m 220.93° 218.29° Grass 0 ft / 0 m 0 ft / 0 m
27 157 ft / 48 m 7,839 ft / 2,389 m 277.20° 274.56° Gravel 0 ft / 0 m 0 ft / 0 m
9 157 ft / 48 m 7,839 ft / 2,389 m 97.18° 94.54° Gravel 0 ft / 0 m 0 ft / 0 m

Approach Navaids

Runway Type Ident Frequency Range Bearing (true) Bearing (mag) Slope Elevation
22 Localiser KSL 108.10 MHz 18 nm / 33 km 220.99° 218.35° - 899 ft / 274 m (AMSL)